Time;durP1;ratioP1;P1;durP2;ratioP2;P2;SDS_P1;SDS_P2;PMS_P1;PMS_P2;Temp;Humidity;BMP_temperature;BMP_pressure;BME280_temperature;BME280_humidity;BME280_pressure;Samples;Min_cycle;Max_cycle;Signal;HPM_P1;HPM_P2
2023/06/28 00:02:16;;;;;;;6.32;3.20;;;;;;;20.32;60.15;101775.56;5069727;28;20027;-73
2023/06/28 00:04:41;;;;;;;6.45;2.92;;;;;;;20.30;60.63;101779.81;5070966;28;20036;-73
2023/06/28 00:07:08;;;;;;;7.32;2.83;;;;;;;20.30;60.91;101775.00;5068299;28;20024;-73
2023/06/28 00:09:34;;;;;;;8.65;3.22;;;;;;;20.27;60.71;101778.41;5084933;28;20036;-73
2023/06/28 00:11:59;;;;;;;4.18;2.67;;;;;;;20.31;60.80;101782.31;5072707;28;20119;-73
2023/06/28 00:14:25;;;;;;;6.63;3.08;;;;;;;20.30;60.94;101786.28;5063406;28;20432;-73
2023/06/28 00:16:50;;;;;;;6.18;3.10;;;;;;;20.28;60.39;101782.94;5051723;28;20049;-73
2023/06/28 00:19:17;;;;;;;6.70;3.17;;;;;;;20.29;60.65;101784.59;5073388;28;20035;-73
2023/06/28 00:21:43;;;;;;;5.53;3.25;;;;;;;20.24;59.61;101781.84;5087230;28;20131;-73
2023/06/28 00:24:09;;;;;;;6.35;3.55;;;;;;;20.18;58.92;101788.66;5071535;28;20055;-73
2023/06/28 00:26:34;;;;;;;7.18;3.30;;;;;;;20.13;58.65;101780.25;5071218;28;20094;-73
2023/06/28 00:28:59;;;;;;;6.57;3.10;;;;;;;20.14;59.54;101783.91;5069222;28;20031;-72
2023/06/28 00:31:25;;;;;;;5.35;2.88;;;;;;;20.01;59.31;101776.97;5070047;28;20040;-72
2023/06/28 00:33:50;;;;;;;8.85;3.70;;;;;;;20.03;57.88;101785.94;5070706;28;20033;-72
2023/06/28 00:36:15;;;;;;;9.90;3.50;;;;;;;20.01;57.27;101783.44;5068195;28;20029;-73
2023/06/28 00:38:41;;;;;;;9.82;3.40;;;;;;;20.00;57.55;101783.72;5071239;28;20028;-73
2023/06/28 00:41:06;;;;;;;9.43;3.90;;;;;;;19.93;57.40;101789.72;5066690;28;20029;-73
2023/06/28 00:43:31;;;;;;;9.10;3.20;;;;;;;19.97;57.42;101789.97;5070764;28;20052;-73
2023/06/28 00:45:57;;;;;;;7.63;3.05;;;;;;;19.94;57.48;101784.91;5059596;28;20499;-73
2023/06/28 00:48:23;;;;;;;7.50;3.20;;;;;;;19.95;57.28;101790.25;5051474;28;20056;-73
2023/06/28 00:50:49;;;;;;;6.72;2.60;;;;;;;19.89;56.99;101785.78;5053250;28;20044;-73
2023/06/28 00:53:16;;;;;;;8.98;2.92;;;;;;;19.89;55.84;101797.06;5068516;28;20021;-73
2023/06/28 00:55:42;;;;;;;5.45;2.97;;;;;;;19.90;55.76;101776.19;5068539;28;20099;-73
2023/06/28 00:58:07;;;;;;;7.70;3.05;;;;;;;19.87;56.20;101785.22;5089730;28;20031;-73
2023/06/28 01:00:33;;;;;;;6.05;2.50;;;;;;;19.90;55.56;101781.00;5085867;28;20036;-73
2023/06/28 01:03:00;;;;;;;6.65;2.58;;;;;;;19.88;54.92;101783.25;5056280;28;20135;-73
2023/06/28 01:05:26;;;;;;;7.78;2.50;;;;;;;19.86;55.38;101787.22;5052563;28;21748;-73
2023/06/28 01:07:52;;;;;;;5.70;2.40;;;;;;;19.78;55.89;101785.03;5071148;28;20056;-73
2023/06/28 01:10:19;;;;;;;4.95;2.45;;;;;;;19.83;56.20;101782.16;5066920;28;20025;-73
2023/06/28 01:12:47;;;;;;;8.52;2.08;;;;;;;19.81;55.76;101795.72;5054367;28;20063;-73
2023/06/28 01:15:12;;;;;;;6.15;2.10;;;;;;;19.84;54.98;101795.09;5054668;28;20041;-73
2023/06/28 01:17:38;;;;;;;6.95;2.20;;;;;;;19.80;55.04;101791.19;5069389;28;20521;-73
2023/06/28 01:20:03;;;;;;;6.07;2.42;;;;;;;19.78;55.97;101781.38;5071244;28;20044;-73
2023/06/28 01:22:31;;;;;;;4.15;2.40;;;;;;;19.77;55.96;101788.13;5050536;28;20079;-73
2023/06/28 01:24:57;;;;;;;4.90;2.22;;;;;;;19.75;56.52;101787.56;5050910;28;20033;-73
2023/06/28 01:27:23;;;;;;;5.90;2.15;;;;;;;19.74;56.96;101789.56;5068477;28;20032;-73
2023/06/28 01:29:55;;;;;;;4.05;2.17;;;;;;;19.76;56.94;101781.63;5069531;28;20032;-73
2023/06/28 01:32:21;;;;;;;6.93;2.30;;;;;;;19.81;56.10;101787.25;5075090;28;20077;-73
2023/06/28 01:34:47;;;;;;;4.78;1.90;;;;;;;19.72;55.75;101789.00;5076009;28;20032;-73
2023/06/28 01:37:12;;;;;;;6.25;2.13;;;;;;;19.67;56.10;101776.94;5064844;28;20737;-73
2023/06/28 01:39:38;;;;;;;8.13;2.05;;;;;;;19.61;55.85;101776.09;5073537;28;20416;-73
2023/06/28 01:42:04;;;;;;;6.00;2.10;;;;;;;19.63;56.73;101776.66;5070432;28;20464;-73
2023/06/28 01:44:31;;;;;;;3.70;1.70;;;;;;;19.67;56.51;101777.78;5072517;28;20042;-73
2023/06/28 01:46:57;;;;;;;5.88;2.03;;;;;;;19.67;55.92;101780.59;5094335;28;20036;-73
2023/06/28 01:49:25;;;;;;;6.38;1.92;;;;;;;19.67;56.79;101777.78;5082942;28;20023;-73
2023/06/28 01:51:52;;;;;;;5.22;2.25;;;;;;;19.68;55.70;101773.81;5078515;28;20024;-73
2023/06/28 01:54:18;;;;;;;7.38;2.13;;;;;;;19.60;55.61;101777.22;5078508;28;20178;-73
2023/06/28 01:56:43;;;;;;;7.65;2.25;;;;;;;19.66;56.86;101770.47;5058032;28;20084;-73
2023/06/28 01:59:09;;;;;;;6.32;2.58;;;;;;;19.65;56.52;101765.97;5071378;28;20024;-73
2023/06/28 02:01:34;;;;;;;7.60;4.57;;;;;;;19.55;57.25;101771.63;5083517;28;20468;-73
2023/06/28 02:04:00;;;;;;;7.07;4.93;;;;;;;19.53;57.96;101766.31;5080742;28;20120;-73
2023/06/28 02:06:25;;;;;;;6.40;3.42;;;;;;;19.56;58.11;101764.84;5073276;28;20075;-73
2023/06/28 02:08:51;;;;;;;5.90;2.95;;;;;;;19.49;58.38;101759.56;5073953;28;20031;-72
2023/06/28 02:11:16;;;;;;;7.57;3.15;;;;;;;19.54;58.85;101758.69;5067590;28;20625;-72
2023/06/28 02:13:41;;;;;;;6.70;2.88;;;;;;;19.51;58.19;101759.25;5069827;28;20039;-73
2023/06/28 02:16:06;;;;;;;5.30;2.97;;;;;;;19.55;58.33;101761.19;5069270;28;20048;-73
2023/06/28 02:18:34;;;;;;;8.73;3.15;;;;;;;19.48;59.22;101757.84;5068680;28;20028;-73
2023/06/28 02:21:00;;;;;;;7.40;2.60;;;;;;;19.42;59.53;101759.03;5064606;28;20086;-74
2023/06/28 02:23:25;;;;;;;5.97;3.20;;;;;;;19.56;58.95;101753.59;5067884;28;20033;-73
2023/06/28 02:25:50;;;;;;;7.22;3.00;;;;;;;19.56;59.99;101748.78;5063991;28;20029;-73
2023/06/28 02:28:16;;;;;;;5.78;2.58;;;;;;;19.58;60.24;101752.19;5067642;28;20115;-73
2023/06/28 02:30:41;;;;;;;7.07;2.55;;;;;;;19.59;60.25;101751.03;5072157;28;20491;-73
2023/06/28 02:33:06;;;;;;;6.05;2.60;;;;;;;19.58;60.19;101746.53;5073998;28;20028;-73
2023/06/28 02:35:32;;;;;;;4.22;2.25;;;;;;;19.61;60.70;101750.75;5060473;28;20040;-73
2023/06/28 02:37:57;;;;;;;5.15;2.88;;;;;;;19.47;59.84;101746.91;5053214;28;20025;-73
2023/06/28 02:40:24;;;;;;;10.85;2.72;;;;;;;19.47;59.66;101752.53;5054070;28;20046;-73
2023/06/28 02:42:50;;;;;;;8.75;2.92;;;;;;;19.42;60.37;101744.13;5057648;28;20563;-73
2023/06/28 02:45:15;;;;;;;10.13;3.25;;;;;;;19.42;60.37;101746.94;5071528;28;20043;-73
2023/06/28 02:47:40;;;;;;;5.82;3.05;;;;;;;19.38;60.65;101746.69;5075774;28;20075;-72
2023/06/28 02:50:06;;;;;;;7.15;3.05;;;;;;;19.32;60.87;101748.66;5082781;28;20108;-73
2023/06/28 02:52:32;;;;;;;11.38;3.25;;;;;;;19.35;61.55;101750.91;5053376;28;20112;-73
2023/06/28 02:54:58;;;;;;;8.18;3.10;;;;;;;19.36;62.20;101748.94;5053402;28;20464;-73
2023/06/28 02:57:24;;;;;;;8.15;3.10;;;;;;;19.35;62.24;101741.63;5056215;28;20024;-72
2023/06/28 02:59:49;;;;;;;7.60;3.55;;;;;;;19.35;62.38;101752.88;5070288;28;20040;-73
2023/06/28 03:02:15;;;;;;;8.00;3.30;;;;;;;19.25;62.19;101753.78;5054600;28;20028;-73
2023/06/28 03:04:41;;;;;;;6.70;3.38;;;;;;;19.27;62.59;101748.72;5070921;28;20475;-72
2023/06/28 03:07:12;;;;;;;7.18;2.95;;;;;;;19.25;62.29;101747.31;5093047;28;20115;-73
2023/06/28 03:09:37;;;;;;;12.48;3.55;;;;;;;19.27;62.63;101750.69;5093055;28;20111;-73
2023/06/28 03:12:03;;;;;;;5.72;3.50;;;;;;;19.24;62.93;101745.63;5072203;28;20817;-73
2023/06/28 03:14:28;;;;;;;9.68;3.70;;;;;;;19.22;63.55;101748.75;5076010;28;20547;-74
2023/06/28 03:16:54;;;;;;;8.05;3.72;;;;;;;19.18;62.98;101747.63;5083712;28;20045;-73
2023/06/28 03:19:19;;;;;;;5.90;3.78;;;;;;;19.25;63.30;101742.50;5066445;28;20033;-73
2023/06/28 03:21:44;;;;;;;9.93;3.70;;;;;;;19.24;64.32;101746.47;5068306;28;20070;-74
2023/06/28 03:24:09;;;;;;;8.68;3.33;;;;;;;19.22;63.95;101753.53;5066749;28;20036;-74
2023/06/28 03:26:35;;;;;;;11.43;3.58;;;;;;;19.27;63.72;101737.44;5071814;28;20038;-73
2023/06/28 03:29:00;;;;;;;8.32;3.05;;;;;;;19.28;63.72;101739.13;5064268;28;20033;-73
2023/06/28 03:31:26;;;;;;;8.27;4.00;;;;;;;19.18;63.45;101742.00;5083329;28;20089;-73
2023/06/28 03:33:51;;;;;;;7.18;3.80;;;;;;;19.08;63.70;101736.41;5086229;28;20029;-73
2023/06/28 03:36:16;;;;;;;10.90;3.88;;;;;;;19.08;64.18;101734.44;5063943;28;20119;-74
2023/06/28 03:38:41;;;;;;;5.90;3.40;;;;;;;19.06;64.46;101741.47;5067121;28;20493;-73
2023/06/28 03:41:07;;;;;;;6.28;3.55;;;;;;;19.06;63.56;101738.66;5069700;28;20032;-73
2023/06/28 03:43:32;;;;;;;8.57;4.07;;;;;;;19.02;63.45;101738.44;5060006;28;20083;-74
2023/06/28 03:45:57;;;;;;;10.05;3.72;;;;;;;19.02;63.86;101726.31;5051346;28;20116;-73
2023/06/28 03:48:23;;;;;;;8.02;3.63;;;;;;;18.99;64.17;101736.19;5064496;28;20490;-74
2023/06/28 03:50:48;;;;;;;9.27;4.25;;;;;;;18.99;64.22;101738.16;5060287;28;20033;-74
2023/06/28 03:53:14;;;;;;;10.68;4.25;;;;;;;18.98;65.08;101730.84;5059565;28;20503;-73
2023/06/28 03:55:39;;;;;;;5.95;3.42;;;;;;;19.05;64.78;101742.63;5066017;28;20024;-73
2023/06/28 03:58:04;;;;;;;10.05;4.20;;;;;;;19.04;64.17;101733.34;5071033;28;20040;-74
2023/06/28 04:00:30;;;;;;;7.50;4.22;;;;;;;18.99;64.84;101727.75;5068951;28;20036;-73
2023/06/28 04:02:55;;;;;;;8.68;4.10;;;;;;;18.98;65.75;101720.44;5058696;28;20051;-73
2023/06/28 04:05:20;;;;;;;8.68;4.00;;;;;;;18.96;65.19;101728.31;5064728;28;20371;-73
2023/06/28 04:07:54;;;;;;;8.05;4.03;;;;;;;18.96;65.03;101727.47;5062278;28;20803;-73
2023/06/28 04:10:20;;;;;;;8.48;3.95;;;;;;;18.84;65.25;101725.00;5056969;28;20032;-73
2023/06/28 04:12:46;;;;;;;6.78;3.80;;;;;;;18.92;64.85;101726.38;5068522;28;20054;-73
2023/06/28 04:15:11;;;;;;;9.80;4.43;;;;;;;18.95;64.65;101720.19;5059275;28;20065;-74
2023/06/28 04:17:36;;;;;;;10.20;4.30;;;;;;;18.98;65.12;101719.56;5059999;28;20032;-73
2023/06/28 04:20:05;;;;;;;12.88;4.28;;;;;;;19.01;65.29;101719.84;5062346;28;20036;-74
2023/06/28 04:22:31;;;;;;;6.30;4.20;;;;;;;18.96;65.20;101722.69;5066117;28;20488;-73
2023/06/28 04:24:56;;;;;;;6.70;4.05;;;;;;;18.91;64.74;101733.97;5058965;28;20047;-73
2023/06/28 04:27:21;;;;;;;8.50;3.95;;;;;;;18.84;65.17;101725.84;5067901;28;20032;-73
2023/06/28 04:29:47;;;;;;;8.25;4.38;;;;;;;18.81;65.20;101723.59;5062714;28;20105;-71
2023/06/28 04:32:25;;;;;;;8.82;4.55;;;;;;;18.89;64.42;101728.63;5065144;28;20021;-74
2023/06/28 04:34:53;;;;;;;5.57;3.97;;;;;;;18.74;64.80;101731.50;5065482;28;20025;-74
2023/06/28 04:37:22;;;;;;;10.98;4.78;;;;;;;18.75;65.12;101724.75;5071075;28;20054;-74
2023/06/28 04:39:48;;;;;;;8.93;4.70;;;;;;;18.79;65.47;101737.13;5084619;28;20036;-74
2023/06/28 04:42:17;;;;;;;9.13;4.47;;;;;;;18.84;65.27;101731.47;5090418;28;20430;-75
2023/06/28 04:44:44;;;;;;;12.93;4.65;;;;;;;18.84;65.44;101734.28;5087280;28;20059;-74
2023/06/28 04:47:15;;;;;;;10.07;5.15;;;;;;;18.79;65.42;101727.84;5062371;28;20436;-74
2023/06/28 04:49:50;;;;;;;9.85;4.63;;;;;;;18.76;64.46;101729.25;5067917;28;20086;-74
2023/06/28 04:52:18;;;;;;;8.82;4.03;;;;;;;18.73;64.34;101718.56;5064140;28;20024;-74
2023/06/28 04:54:44;;;;;;;10.55;4.22;;;;;;;18.75;65.00;101721.94;5052710;28;20032;-74
2023/06/28 04:57:10;;;;;;;9.13;4.30;;;;;;;18.72;65.20;101732.94;5065136;28;20085;-74
2023/06/28 04:59:36;;;;;;;7.70;4.38;;;;;;;18.70;65.99;101724.75;5060441;28;20473;-74
2023/06/28 05:02:05;;;;;;;8.95;4.30;;;;;;;18.74;65.69;101730.66;5060869;28;20031;-73
2023/06/28 05:04:32;;;;;;;11.35;4.50;;;;;;;18.80;65.86;101723.91;5087741;28;20031;-73
2023/06/28 05:07:01;;;;;;;8.07;4.28;;;;;;;18.74;64.92;101727.84;5070664;28;20033;-73
2023/06/28 05:09:27;;;;;;;10.27;4.25;;;;;;;18.70;64.57;101727.56;5073679;28;20503;-73
2023/06/28 05:11:52;;;;;;;8.23;4.50;;;;;;;18.73;64.79;101728.97;5084924;28;20029;-73
2023/06/28 05:14:17;;;;;;;11.55;4.63;;;;;;;18.67;65.83;101724.44;5050579;28;20041;-74
2023/06/28 05:16:42;;;;;;;11.10;4.82;;;;;;;18.77;64.87;101730.09;5061667;28;20051;-74
2023/06/28 05:19:08;;;;;;;9.70;4.45;;;;;;;18.71;65.07;101731.25;5064475;28;20035;-74
2023/06/28 05:21:33;;;;;;;13.32;4.97;;;;;;;18.67;64.99;101736.56;5054174;28;20032;-74
2023/06/28 05:23:58;;;;;;;10.50;4.88;;;;;;;18.67;65.30;101738.50;5068347;28;20025;-73
2023/06/28 05:26:24;;;;;;;10.80;5.15;;;;;;;18.70;65.93;101740.75;5063683;28;20120;-74
2023/06/28 05:28:49;;;;;;;9.68;4.70;;;;;;;18.67;65.97;101744.13;5090899;28;20027;-73
2023/06/28 05:31:14;;;;;;;9.73;5.13;;;;;;;18.71;65.41;101731.25;5082101;28;20111;-73
2023/06/28 05:33:40;;;;;;;10.52;5.15;;;;;;;18.71;65.93;101726.47;5069778;28;20480;-74
2023/06/28 05:36:06;;;;;;;10.43;4.97;;;;;;;18.71;65.30;101729.28;5055188;28;20024;-74
2023/06/28 05:38:32;;;;;;;12.93;5.47;;;;;;;18.73;65.26;101724.19;5059521;28;20391;-73
2023/06/28 05:41:11;;;;;;;11.18;5.32;;;;;;;18.72;65.56;101722.50;5057483;28;20797;-73
2023/06/28 05:43:36;;;;;;;10.80;4.88;;;;;;;18.70;65.55;101718.25;5059910;28;20021;-74
2023/06/28 05:46:01;;;;;;;10.82;5.07;;;;;;;18.74;65.60;101716.59;5070100;28;20533;-74
2023/06/28 05:48:27;;;;;;;8.38;5.25;;;;;;;18.68;65.70;101721.38;5056072;28;20059;-74
2023/06/28 05:50:52;;;;;;;12.90;5.40;;;;;;;18.72;65.42;101716.88;5067276;28;20048;-74
2023/06/28 05:53:17;;;;;;;9.73;5.35;;;;;;;18.73;65.81;101712.94;5070257;28;20112;-73
2023/06/28 05:55:45;;;;;;;10.75;5.15;;;;;;;18.68;65.75;101712.94;5077268;28;20025;-74
2023/06/28 05:58:10;;;;;;;14.93;5.38;;;;;;;18.73;65.62;101712.94;5059053;28;20024;-74
2023/06/28 06:00:35;;;;;;;11.50;5.38;;;;;;;18.68;65.66;101715.75;5051345;28;20483;-74
2023/06/28 06:03:01;;;;;;;10.60;5.28;;;;;;;18.66;65.84;101712.38;5050401;28;20038;-74
2023/06/28 06:05:26;;;;;;;10.70;5.20;;;;;;;18.79;65.80;101702.53;5076070;28;20024;-73
2023/06/28 06:07:51;;;;;;;12.52;5.65;;;;;;;18.77;66.16;101710.41;5080536;28;20027;-73
2023/06/28 06:10:17;;;;;;;8.02;5.85;;;;;;;18.74;66.43;101711.81;5064091;28;20065;-75
2023/06/28 06:12:42;;;;;;;8.82;5.00;;;;;;;18.78;65.99;101710.09;5060326;28;20204;-75
2023/06/28 06:15:08;;;;;;;11.02;5.25;;;;;;;18.84;66.38;101708.97;5063894;28;20075;-74
2023/06/28 06:17:34;;;;;;;9.70;5.80;;;;;;;18.84;66.28;101708.13;5069904;28;20024;-74
2023/06/28 06:20:00;;;;;;;9.13;5.40;;;;;;;18.88;66.33;101707.25;5062979;28;20036;-75
2023/06/28 06:22:26;;;;;;;10.27;5.70;;;;;;;18.83;66.49;101707.28;5064417;28;20032;-75
2023/06/28 06:24:51;;;;;;;10.90;5.60;;;;;;;18.84;65.94;101711.78;5064409;28;20039;-74
2023/06/28 06:27:17;;;;;;;10.25;5.80;;;;;;;18.76;65.53;101712.38;5064724;28;20024;-78
2023/06/28 06:29:42;;;;;;;10.88;5.82;;;;;;;18.81;65.36;101714.31;5064044;28;20047;-78
2023/06/28 06:32:08;;;;;;;10.07;6.35;;;;;;;18.77;65.81;101716.84;5069368;28;20012;-75
2023/06/28 06:34:33;;;;;;;9.75;5.95;;;;;;;18.77;65.65;101716.03;5070847;28;20412;-78
2023/06/28 06:36:58;;;;;;;13.50;6.53;;;;;;;18.74;66.00;101716.59;5078401;28;20424;-73
2023/06/28 06:39:24;;;;;;;12.00;6.47;;;;;;;18.74;65.75;101713.78;5072964;28;20417;-73
2023/06/28 06:41:49;;;;;;;8.30;6.20;;;;;;;18.73;66.23;101712.94;5071797;28;20032;-71
2023/06/28 06:44:15;;;;;;;12.45;6.78;;;;;;;18.68;66.20;101717.72;5072664;28;20025;-74
2023/06/28 06:46:40;;;;;;;12.43;6.13;;;;;;;18.69;66.47;101723.06;5073188;28;20058;-77
2023/06/28 06:49:05;;;;;;;10.55;6.30;;;;;;;18.70;66.10;101712.63;5050209;28;20091;-76
2023/06/28 06:51:30;;;;;;;13.07;6.10;;;;;;;18.73;66.21;101715.75;5051476;28;20036;-76
2023/06/28 06:53:56;;;;;;;12.93;6.47;;;;;;;18.73;66.54;101718.56;5062015;28;20426;-77
2023/06/28 06:56:22;;;;;;;13.27;5.82;;;;;;;18.81;66.60;101723.59;5071345;28;20569;-75
2023/06/28 06:58:48;;;;;;;8.23;5.90;;;;;;;18.77;66.41;101716.03;5070532;28;20439;-75
2023/06/28 07:01:13;;;;;;;9.75;4.88;;;;;;;18.90;65.40;101721.00;5061221;28;20050;-78
2023/06/28 07:03:39;;;;;;;6.90;3.15;;;;;;;19.01;65.40;101721.81;5068959;28;20120;-78
2023/06/28 07:06:05;;;;;;;9.90;4.95;;;;;;;18.98;64.91;101730.84;5072433;28;20115;-77
2023/06/28 07:08:30;;;;;;;9.70;3.40;;;;;;;19.11;64.27;101725.44;5071738;28;20107;-79
2023/06/28 07:10:55;;;;;;;6.97;3.58;;;;;;;19.21;64.42;101724.53;5071773;28;20035;-76
2023/06/28 07:13:21;;;;;;;11.70;4.95;;;;;;;19.16;63.87;101732.16;5055338;28;20025;-76
2023/06/28 07:15:46;;;;;;;7.15;3.70;;;;;;;19.29;64.00;101732.34;5051371;28;20044;-75
2023/06/28 07:18:11;;;;;;;9.85;4.45;;;;;;;19.20;63.34;101739.72;5052630;28;20445;-78
2023/06/28 07:20:37;;;;;;;9.95;4.57;;;;;;;19.08;63.03;101737.25;5066355;28;20029;-75
2023/06/28 07:23:02;;;;;;;9.57;3.72;;;;;;;19.14;63.75;101740.91;5068946;28;20059;-75
2023/06/28 07:25:28;;;;;;;9.15;4.25;;;;;;;19.07;63.67;101738.41;5072222;28;20103;-76
2023/06/28 07:27:53;;;;;;;11.05;5.07;;;;;;;19.01;64.07;101735.88;5068257;28;20028;-75
2023/06/28 07:30:18;;;;;;;14.93;5.10;;;;;;;18.99;63.79;101735.34;5072000;28;20150;-77
2023/06/28 07:32:43;;;;;;;10.90;5.07;;;;;;;19.07;63.29;101741.22;5060454;28;20492;-78
2023/06/28 07:35:09;;;;;;;9.00;4.63;;;;;;;19.05;63.82;101734.19;5057491;28;20103;-76
2023/06/28 07:37:35;;;;;;;6.10;3.55;;;;;;;19.23;63.37;101744.78;5070603;28;20250;-79
2023/06/28 07:40:00;;;;;;;10.80;5.00;;;;;;;19.14;63.00;101749.34;5068501;28;20028;-74
2023/06/28 07:42:27;;;;;;;7.88;4.78;;;;;;;19.18;62.29;101732.69;5070771;28;20664;-78
2023/06/28 07:44:52;;;;;;;8.65;4.70;;;;;;;19.06;62.22;101735.84;5072551;28;20576;-78
2023/06/28 07:47:18;;;;;;;10.05;4.70;;;;;;;19.01;62.05;101738.69;5071635;28;20033;-77
2023/06/28 07:49:43;;;;;;;13.50;5.40;;;;;;;19.05;62.65;101742.63;5063164;28;20097;-77
2023/06/28 07:52:09;;;;;;;12.95;5.10;;;;;;;19.01;61.91;101735.88;5064509;28;20158;-77
2023/06/28 07:54:35;;;;;;;11.63;4.50;;;;;;;19.03;62.58;101737.28;5066080;28;20029;-74
2023/06/28 07:57:01;;;;;;;10.38;5.18;;;;;;;18.99;62.27;101733.38;5068454;28;20086;-78
2023/06/28 07:59:26;;;;;;;9.80;5.35;;;;;;;19.01;62.29;101735.88;5065372;28;20519;-76
2023/06/28 08:01:51;;;;;;;8.15;3.92;;;;;;;19.19;62.08;101734.41;5070430;28;20044;-78
2023/06/28 08:04:17;;;;;;;9.77;5.43;;;;;;;19.09;61.64;101743.72;5070931;28;20040;-77
2023/06/28 08:06:43;;;;;;;6.70;4.55;;;;;;;19.15;61.90;101741.75;5069679;28;20043;-78
2023/06/28 08:09:09;;;;;;;7.88;4.18;;;;;;;19.22;61.73;101739.47;5061711;28;20029;-74
2023/06/28 08:11:34;;;;;;;8.48;4.85;;;;;;;19.21;61.52;101740.56;5068395;28;20021;-71
2023/06/28 08:13:59;;;;;;;10.50;5.07;;;;;;;19.11;60.84;101733.03;5070236;28;20028;-77
2023/06/28 08:16:25;;;;;;;9.60;4.82;;;;;;;18.99;61.03;101727.75;5066942;28;20056;-76
2023/06/28 08:18:50;;;;;;;10.55;4.60;;;;;;;19.05;61.81;101737.84;5063781;28;20025;-73
2023/06/28 08:21:15;;;;;;;11.63;5.28;;;;;;;19.13;61.63;101736.38;5061109;28;20029;-74
2023/06/28 08:23:40;;;;;;;12.93;5.00;;;;;;;19.11;61.04;101728.25;5077156;28;20027;-76
2023/06/28 08:26:06;;;;;;;10.65;5.03;;;;;;;19.12;60.97;101726.28;5067762;28;20052;-77
2023/06/28 08:28:31;;;;;;;7.97;4.90;;;;;;;19.16;61.30;101727.38;5071750;28;20028;-75
2023/06/28 08:30:57;;;;;;;11.13;5.13;;;;;;;19.12;61.49;101734.72;5076193;28;20024;-75
2023/06/28 08:33:24;;;;;;;10.77;4.93;;;;;;;19.17;61.34;101737.50;5077176;28;20077;-73
2023/06/28 08:35:49;;;;;;;7.35;4.65;;;;;;;19.16;60.89;101738.63;5071486;28;20028;-75
2023/06/28 08:38:15;;;;;;;10.70;5.00;;;;;;;19.15;60.86;101744.56;5064446;28;20053;-74
2023/06/28 08:40:40;;;;;;;10.45;5.40;;;;;;;19.13;61.20;101742.00;5058762;28;20469;-73
2023/06/28 08:43:06;;;;;;;8.70;4.40;;;;;;;19.17;61.44;101734.69;5069262;28;20063;-74
2023/06/28 08:45:33;;;;;;;11.57;4.35;;;;;;;19.23;61.30;101739.16;5069847;28;20028;-78
2023/06/28 08:48:01;;;;;;;11.70;4.57;;;;;;;19.31;61.40;101735.72;5062859;28;20127;-75
2023/06/28 08:50:28;;;;;;;8.55;4.72;;;;;;;19.33;61.25;101726.97;5069959;28;20077;-75
2023/06/28 08:52:53;;;;;;;9.43;4.25;;;;;;;19.38;61.23;101732.59;5067376;28;20767;-75
2023/06/28 08:55:20;;;;;;;7.10;3.47;;;;;;;19.56;60.44;101737.53;5060839;28;20115;-75
2023/06/28 08:57:47;;;;;;;9.25;3.70;;;;;;;19.68;60.42;101739.19;5070389;28;20036;-75
2023/06/28 09:00:13;;;;;;;8.02;3.47;;;;;;;19.81;59.94;101741.34;5070257;28;20032;-75
2023/06/28 09:02:40;;;;;;;13.45;4.70;;;;;;;19.78;60.30;101730.66;5070004;28;20043;-75
2023/06/28 09:05:07;;;;;;;8.60;4.50;;;;;;;19.86;60.24;101738.47;5070094;28;20028;-75
2023/06/28 09:07:34;;;;;;;5.70;3.33;;;;;;;20.00;59.83;101730.19;5069604;28;20039;-75
2023/06/28 09:10:00;;;;;;;8.95;4.00;;;;;;;19.98;59.93;101730.47;5057917;28;20033;-75
2023/06/28 09:12:26;;;;;;;8.07;4.18;;;;;;;19.97;59.54;101725.16;5050926;28;20087;-74
2023/06/28 09:14:52;;;;;;;7.20;3.67;;;;;;;19.99;58.84;101718.06;5049845;28;20029;-74
2023/06/28 09:17:18;;;;;;;11.75;4.65;;;;;;;19.84;58.98;101718.19;5058466;28;20042;-74
2023/06/28 09:19:44;;;;;;;9.48;4.68;;;;;;;19.88;59.08;101719.28;5069922;28;20025;-74
2023/06/28 09:22:09;;;;;;;13.30;4.75;;;;;;;19.76;59.29;101727.28;5069810;28;20081;-74
2023/06/28 09:24:36;;;;;;;12.18;4.75;;;;;;;19.67;59.02;101720.59;5070371;28;20484;-74
2023/06/28 09:27:07;;;;;;;9.20;3.30;;;;;;;19.83;59.31;101719.34;5065974;28;20264;-75
2023/06/28 09:29:33;;;;;;;7.57;4.13;;;;;;;19.76;58.94;101725.31;5050495;28;20045;-74
2023/06/28 09:31:58;;;;;;;8.27;3.60;;;;;;;19.92;58.77;101719.53;5060355;28;20032;-75
2023/06/28 09:34:24;;;;;;;6.75;3.15;;;;;;;20.01;58.69;101715.81;5069680;28;20112;-75
2023/06/28 09:36:55;;;;;;;5.22;3.10;;;;;;;20.06;58.51;101723.38;5069217;28;20024;-75
2023/06/28 09:39:20;;;;;;;8.63;4.68;;;;;;;20.03;58.23;101718.31;5070413;28;20108;-75
2023/06/28 09:41:46;;;;;;;6.20;2.92;;;;;;;20.20;58.25;101724.38;5069813;28;20108;-74
2023/06/28 09:44:11;;;;;;;8.23;3.33;;;;;;;20.19;57.87;101719.84;5069574;28;20064;-75
2023/06/28 09:46:44;;;;;;;6.53;3.17;;;;;;;20.24;57.81;101722.63;5065335;28;20048;-75
2023/06/28 09:49:23;;;;;;;8.15;3.22;;;;;;;20.34;57.80;101713.22;5060494;28;20032;-75
2023/06/28 09:52:00;;;;;;;8.85;3.90;;;;;;;20.32;57.66;101722.00;5069385;28;20028;-75
2023/06/28 09:54:44;;;;;;;6.75;3.05;;;;;;;20.40;57.35;101720.50;5070213;28;20096;-75
2023/06/28 09:57:10;;;;;;;10.52;4.57;;;;;;;20.27;56.64;101715.53;5071093;28;20032;-74
2023/06/28 09:59:36;;;;;;;5.97;3.22;;;;;;;20.41;57.31;101707.25;5073813;28;20040;-74
2023/06/28 10:02:05;;;;;;;7.15;3.55;;;;;;;20.42;57.31;101708.91;5073657;28;20184;-74
2023/06/28 10:04:34;;;;;;;7.25;2.83;;;;;;;20.63;56.28;101709.53;5072729;28;20139;-75
2023/06/28 10:07:01;;;;;;;9.93;4.15;;;;;;;20.61;57.47;101701.38;5071441;28;20032;-74
2023/06/28 10:09:37;;;;;;;5.85;3.53;;;;;;;20.80;56.66;101707.09;5073207;28;20484;-74
2023/06/28 10:12:13;;;;;;;7.88;3.30;;;;;;;20.93;56.76;101711.16;5071600;28;20543;-74
2023/06/28 10:14:45;;;;;;;7.35;3.03;;;;;;;21.01;56.42;101700.03;5073427;28;20107;-74
2023/06/28 10:17:11;;;;;;;7.50;3.17;;;;;;;20.99;55.40;101702.31;5073488;28;20048;-74
2023/06/28 10:19:37;;;;;;;7.63;3.72;;;;;;;20.95;54.92;101700.41;5072451;28;20084;-74
2023/06/28 10:22:04;;;;;;;5.30;2.97;;;;;;;21.04;55.37;101698.59;5066489;28;20056;-74
2023/06/28 10:24:32;;;;;;;4.75;2.83;;;;;;;21.14;55.20;101701.25;5057132;28;20017;-74
2023/06/28 10:27:00;;;;;;;5.38;2.67;;;;;;;21.19;55.24;101704.03;5070363;28;20033;-74
2023/06/28 10:29:26;;;;;;;9.85;3.10;;;;;;;21.21;54.26;101698.88;5070545;28;20036;-74
2023/06/28 10:31:51;;;;;;;6.70;3.03;;;;;;;21.29;54.83;101701.03;5070760;28;20031;-74
2023/06/28 10:34:16;;;;;;;10.38;3.20;;;;;;;21.26;54.27;101696.03;5070789;28;20468;-74
2023/06/28 10:36:42;;;;;;;8.80;3.65;;;;;;;21.22;53.18;101702.56;5070693;28;20032;-74
2023/06/28 10:39:08;;;;;;;7.88;3.50;;;;;;;21.31;54.29;101695.94;5070412;28;20028;-74
2023/06/28 10:41:34;;;;;;;7.70;2.88;;;;;;;21.38;53.94;101697.53;5060281;28;20525;-74
2023/06/28 10:44:04;;;;;;;8.18;3.30;;;;;;;21.41;53.89;101699.75;5072462;28;20025;-74
2023/06/28 10:46:30;;;;;;;6.63;3.00;;;;;;;21.51;53.77;101697.63;5072451;28;20022;-74
2023/06/28 10:48:59;;;;;;;10.00;3.58;;;;;;;21.49;53.21;101702.72;5072683;28;20032;-74
2023/06/28 10:51:29;;;;;;;6.68;3.40;;;;;;;21.46;53.17;101694.06;5072515;28;20075;-74
2023/06/28 10:54:13;;;;;;;10.13;4.15;;;;;;;21.47;53.91;101692.91;5070966;28;20024;-74
2023/06/28 10:56:49;;;;;;;7.13;3.42;;;;;;;21.56;53.70;101693.88;5052620;28;20033;-75
2023/06/28 10:59:15;;;;;;;3.95;2.80;;;;;;;21.66;53.61;101693.72;5058832;28;20040;-74
2023/06/28 11:01:49;;;;;;;8.65;3.08;;;;;;;21.74;53.68;101690.19;5051601;28;20025;-74
2023/06/28 11:04:18;;;;;;;10.48;3.75;;;;;;;21.83;53.44;101693.16;5052665;28;20040;-74
2023/06/28 11:06:45;;;;;;;6.57;2.85;;;;;;;21.85;52.50;101684.34;5052006;28;20064;-74
2023/06/28 11:09:14;;;;;;;8.25;3.40;;;;;;;22.00;53.19;101681.25;5051626;28;20045;-74
2023/06/28 11:11:41;;;;;;;8.27;3.35;;;;;;;22.06;52.64;101660.25;5052886;28;20121;-74
2023/06/28 11:14:19;;;;;;;7.38;4.30;;;;;;;22.08;52.99;101666.41;5067755;28;20045;-75
2023/06/28 11:16:47;;;;;;;7.95;3.58;;;;;;;22.11;53.39;101668.63;5066969;28;20040;-75
2023/06/28 11:19:14;;;;;;;13.23;4.40;;;;;;;22.10;52.65;101675.44;5072276;28;20032;-75